createdAt,value
2022-11-20T00:00:57.365Z,16.23
2022-11-20T00:01:59.199Z,18.63
2022-11-20T00:03:00.945Z,14.32
2022-11-20T00:04:02.821Z,14.95
2022-11-20T00:05:04.849Z,16.70
2022-11-20T00:06:08.641Z,16.40
2022-11-20T00:07:10.473Z,19.77
2022-11-20T00:08:12.478Z,19.38
2022-11-20T00:09:14.192Z,16.52
2022-11-20T00:10:16.519Z,17.58
2022-11-20T00:11:23.113Z,16.25
2022-11-20T00:12:24.892Z,13.90
2022-11-20T00:13:26.614Z,15.02
2022-11-20T00:14:28.429Z,13.70
2022-11-20T00:15:30.152Z,16.37
2022-11-20T00:16:33.795Z,14.15
2022-11-20T00:17:35.561Z,14.32
2022-11-20T00:18:37.899Z,15.65
2022-11-20T00:19:39.650Z,15.10
2022-11-20T00:20:41.448Z,12.90
2022-11-20T00:21:43.178Z,13.63
2022-11-20T00:22:44.935Z,13.52
2022-11-20T00:23:47.001Z,13.98
2022-11-20T00:24:48.720Z,13.70
2022-11-20T00:25:50.446Z,15.07
2022-11-20T00:26:52.181Z,18.63
2022-11-20T00:27:53.894Z,14.55
2022-11-20T00:29:02.020Z,15.55
2022-11-20T00:30:04.750Z,18.40
2022-11-20T00:31:11.948Z,15.88
2022-11-20T00:32:13.651Z,13.82
2022-11-20T00:33:15.337Z,15.68
2022-11-20T00:34:17.114Z,17.15
2022-11-20T00:35:18.837Z,17.75
2022-11-20T00:36:23.278Z,14.30
2022-11-20T00:37:25.013Z,18.27
2022-11-20T00:38:26.718Z,17.08
2022-11-20T00:39:28.478Z,18.08
2022-11-20T00:40:30.239Z,14.25
2022-11-20T00:41:32.002Z,16.42
2022-11-20T00:42:33.919Z,18.92
2022-11-20T00:43:36.289Z,18.00
2022-11-20T00:44:38.043Z,18.27
2022-11-20T00:45:39.740Z,13.85
2022-11-20T00:46:41.477Z,17.27
2022-11-20T00:47:43.195Z,20.30
2022-11-20T00:48:45.750Z,18.67
2022-11-20T00:49:47.550Z,18.33
2022-11-20T00:50:49.270Z,15.65
2022-11-20T00:51:51.100Z,18.85
2022-11-20T00:52:52.872Z,13.68
2022-11-20T00:53:57.412Z,20.67
2022-11-20T00:54:59.153Z,16.02
2022-11-20T00:56:03.771Z,15.82
2022-11-20T00:57:05.664Z,19.37
2022-11-20T00:58:12.994Z,14.95
2022-11-20T00:59:15.985Z,11.45
2022-11-20T01:00:17.862Z,14.63
2022-11-20T01:01:25.919Z,15.35
2022-11-20T01:02:27.691Z,11.75
2022-11-20T01:03:38.857Z,11.27
2022-11-20T01:04:40.564Z,12.52
2022-11-20T01:05:42.302Z,14.93
2022-11-20T01:06:44.104Z,15.30
2022-11-20T01:07:45.860Z,15.43
2022-11-20T01:08:47.996Z,18.30
2022-11-20T01:09:49.733Z,16.25
2022-11-20T01:10:51.446Z,13.98
2022-11-20T01:11:53.182Z,13.55
2022-11-20T01:13:14.866Z,12.25
2022-11-20T01:14:19.634Z,16.45
2022-11-20T01:15:21.434Z,12.18
2022-11-20T01:16:24.658Z,13.25
2022-11-20T01:17:26.382Z,14.52
2022-11-20T01:18:28.097Z,13.53
2022-11-20T01:19:29.845Z,15.63
2022-11-20T01:20:35.016Z,12.13
2022-11-20T01:21:39.234Z,15.00
2022-11-20T01:22:40.974Z,14.85
2022-11-20T01:23:44.492Z,14.73
2022-11-20T01:24:46.200Z,11.95
2022-11-20T01:25:47.917Z,12.38
2022-11-20T01:26:51.764Z,17.00
2022-11-20T01:27:53.563Z,13.40
2022-11-20T01:28:56.799Z,12.57
2022-11-20T01:30:01.289Z,14.27
2022-11-20T01:31:15.791Z,15.13
2022-11-20T01:32:17.840Z,14.32
2022-11-20T01:33:19.557Z,14.68
2022-11-20T01:34:23.292Z,14.85
2022-11-20T01:35:25.036Z,16.33
2022-11-20T01:36:30.290Z,16.88
2022-11-20T01:37:32.032Z,17.05
2022-11-20T01:38:33.967Z,12.13
2022-11-20T01:39:35.705Z,13.70
2022-11-20T01:40:37.662Z,16.85
2022-11-20T01:41:58.366Z,17.52
2022-11-20T01:43:24.292Z,13.88
2022-11-20T01:44:49.752Z,20.77
2022-11-20T01:46:23.639Z,14.45
2022-11-20T01:47:34.429Z,14.55
2022-11-20T01:49:06.552Z,14.68
2022-11-20T01:50:19.185Z,18.57
2022-11-20T01:51:27.067Z,14.15
2022-11-20T01:52:37.468Z,14.93
2022-11-20T01:53:39.751Z,18.73
2022-11-20T01:54:49.355Z,13.45
2022-11-20T01:55:54.042Z,18.52
2022-11-20T01:56:58.476Z,12.75
2022-11-20T01:58:01.673Z,15.88
2022-11-20T01:59:06.969Z,16.58
2022-11-20T02:00:15.412Z,16.92
2022-11-20T02:01:17.292Z,13.43
2022-11-20T02:02:19.104Z,14.50
2022-11-20T02:03:21.513Z,16.13
2022-11-20T02:04:24.033Z,15.07
2022-11-20T02:05:37.997Z,13.07
2022-11-20T02:06:54.656Z,15.05
2022-11-20T02:07:58.756Z,16.30
2022-11-20T02:09:00.524Z,13.40
2022-11-20T02:10:02.677Z,15.85
2022-11-20T02:11:04.468Z,16.52
2022-11-20T02:12:26.767Z,22.83
2022-11-20T02:13:44.088Z,17.35
2022-11-20T02:14:45.855Z,18.20
2022-11-20T02:15:48.202Z,20.45
2022-11-20T02:16:50.857Z,15.52
2022-11-20T02:17:52.790Z,14.40
2022-11-20T02:19:02.182Z,16.77
2022-11-20T02:20:05.371Z,16.17
2022-11-20T02:21:31.357Z,14.52
2022-11-20T02:22:40.385Z,16.50
2022-11-20T02:24:02.198Z,14.48
2022-11-20T02:25:04.891Z,16.17
2022-11-20T02:26:12.052Z,18.88
2022-11-20T02:27:16.021Z,13.02
2022-11-20T02:28:19.284Z,13.98
2022-11-20T02:29:27.650Z,14.52
2022-11-20T02:30:29.420Z,9.90
2022-11-20T02:31:37.588Z,15.52
2022-11-20T02:32:40.762Z,12.60
2022-11-20T02:33:42.478Z,12.30
2022-11-20T02:34:44.212Z,14.57
2022-11-20T02:35:47.948Z,13.68
2022-11-20T02:36:52.189Z,12.68
2022-11-20T02:37:59.442Z,14.15
2022-11-20T02:39:01.254Z,13.68
2022-11-20T02:40:03.066Z,14.60
2022-11-20T02:41:04.875Z,13.82
2022-11-20T02:42:06.810Z,14.70
2022-11-20T02:43:09.435Z,12.90
2022-11-20T02:44:11.160Z,14.40
2022-11-20T02:45:13.124Z,13.75
2022-11-20T02:46:15.511Z,15.07
2022-11-20T02:47:17.259Z,15.18
2022-11-20T02:48:19.047Z,14.18
2022-11-20T02:49:21.089Z,13.57
2022-11-20T02:50:23.129Z,16.33
2022-11-20T02:51:25.258Z,19.30
2022-11-20T02:52:27.213Z,20.10
2022-11-20T02:53:29.079Z,19.35
2022-11-20T02:54:30.823Z,13.57
2022-11-20T02:55:32.735Z,15.32
2022-11-20T02:56:34.645Z,18.63
2022-11-20T02:57:36.414Z,13.10
2022-11-20T02:58:38.536Z,16.48
2022-11-20T02:59:40.336Z,16.52
2022-11-20T03:00:42.089Z,16.25
2022-11-20T03:01:43.996Z,17.48
2022-11-20T03:02:46.136Z,14.57
2022-11-20T03:03:49.541Z,13.83
2022-11-20T03:04:51.288Z,17.90
2022-11-20T03:05:53.040Z,18.17
2022-11-20T03:06:54.774Z,13.77
2022-11-20T03:07:56.523Z,11.68
2022-11-20T03:08:58.256Z,13.05
2022-11-20T03:09:59.987Z,15.00
2022-11-20T03:11:07.161Z,18.00
2022-11-20T03:12:08.992Z,14.82
2022-11-20T03:13:10.788Z,14.52
2022-11-20T03:14:12.536Z,11.20
2022-11-20T03:15:14.492Z,14.00
2022-11-20T03:16:22.473Z,14.23
2022-11-20T03:17:24.176Z,17.02
2022-11-20T03:18:28.469Z,17.98
2022-11-20T03:19:30.392Z,12.43
2022-11-20T03:20:34.833Z,11.15
2022-11-20T03:21:36.812Z,10.98
2022-11-20T03:22:38.565Z,9.63
2022-11-20T03:23:40.480Z,13.23
2022-11-20T03:24:42.206Z,11.97
2022-11-20T03:25:43.955Z,17.90
2022-11-20T03:26:45.749Z,12.18
2022-11-20T03:27:47.521Z,13.00
2022-11-20T03:28:57.557Z,15.43
2022-11-20T03:29:59.244Z,11.57
2022-11-20T03:31:10.903Z,13.45
2022-11-20T03:32:12.608Z,10.55
2022-11-20T03:33:14.331Z,17.25
2022-11-20T03:34:16.128Z,13.27
2022-11-20T03:35:18.840Z,13.17
2022-11-20T03:36:21.560Z,15.35
2022-11-20T03:37:23.250Z,14.50
2022-11-20T03:38:24.965Z,10.73
2022-11-20T03:39:27.432Z,13.50
2022-11-20T03:40:29.208Z,9.65
2022-11-20T03:41:32.580Z,12.80
2022-11-20T03:42:46.274Z,12.40
2022-11-20T03:43:52.549Z,16.38
2022-11-20T03:44:54.252Z,11.80
2022-11-20T03:45:56.369Z,13.35
2022-11-20T03:46:58.070Z,13.32
2022-11-20T03:47:59.845Z,18.00
2022-11-20T03:49:01.840Z,12.13
2022-11-20T03:50:04.221Z,13.32
2022-11-20T03:51:14.777Z,13.35
2022-11-20T03:52:16.568Z,13.15
2022-11-20T03:53:20.802Z,12.40
2022-11-20T03:54:22.618Z,14.73
2022-11-20T03:55:24.340Z,11.57
2022-11-20T03:56:35.724Z,13.60
2022-11-20T03:57:37.544Z,13.32
2022-11-20T03:58:40.623Z,14.05
2022-11-20T03:59:42.333Z,15.43
2022-11-20T04:00:44.226Z,15.93
2022-11-20T04:01:49.432Z,12.70
2022-11-20T04:02:51.481Z,12.38
2022-11-20T04:03:55.028Z,14.70
2022-11-20T04:04:56.761Z,10.95
2022-11-20T04:06:12.572Z,15.53
2022-11-20T04:07:14.397Z,8.98
2022-11-20T04:08:16.228Z,7.78
2022-11-20T04:09:18.018Z,10.48
2022-11-20T04:10:19.915Z,8.57
2022-11-20T04:11:24.618Z,6.63
2022-11-20T04:12:26.353Z,9.38
2022-11-20T04:13:28.086Z,9.32
2022-11-20T04:14:29.852Z,12.20
2022-11-20T04:15:35.697Z,7.63
2022-11-20T04:16:39.997Z,7.13
2022-11-20T04:17:41.819Z,8.95
2022-11-20T04:18:44.349Z,12.15
2022-11-20T04:19:46.165Z,9.43
2022-11-20T04:20:48.791Z,7.22
2022-11-20T04:21:50.514Z,9.50
2022-11-20T04:22:55.556Z,8.02
2022-11-20T04:23:57.832Z,10.30
2022-11-20T04:24:59.571Z,7.93
2022-11-20T04:26:10.332Z,9.20
2022-11-20T04:27:12.051Z,14.20
2022-11-20T04:28:13.948Z,9.85
2022-11-20T04:29:15.770Z,15.10
2022-11-20T04:30:17.713Z,10.57
2022-11-20T04:31:21.984Z,11.70
2022-11-20T04:32:23.737Z,8.07
2022-11-20T04:33:27.054Z,10.18
2022-11-20T04:34:29.918Z,13.13
2022-11-20T04:35:34.619Z,9.70
2022-11-20T04:36:36.346Z,12.85
2022-11-20T04:37:38.061Z,10.50
2022-11-20T04:38:40.488Z,7.07
2022-11-20T04:39:42.364Z,10.27
2022-11-20T04:40:44.118Z,9.70
2022-11-20T04:41:45.862Z,9.02
2022-11-20T04:42:47.624Z,9.05
2022-11-20T04:43:51.131Z,9.98
2022-11-20T04:44:52.933Z,10.82
2022-11-20T04:45:55.765Z,10.40
2022-11-20T04:46:57.472Z,11.65
2022-11-20T04:47:59.207Z,8.80
2022-11-20T04:49:00.941Z,11.88
2022-11-20T04:50:02.841Z,10.88
2022-11-20T04:51:05.383Z,9.90
2022-11-20T04:52:07.140Z,9.18
2022-11-20T04:53:08.860Z,9.15
2022-11-20T04:54:12.147Z,8.18
2022-11-20T04:55:14.413Z,11.77
2022-11-20T04:56:16.709Z,7.22
2022-11-20T04:57:18.458Z,8.20
2022-11-20T04:58:20.224Z,7.27
2022-11-20T04:59:22.430Z,6.68
2022-11-20T05:00:24.513Z,10.88
2022-11-20T05:01:26.562Z,5.38
2022-11-20T05:02:28.353Z,8.13
2022-11-20T05:03:30.468Z,7.55
2022-11-20T05:04:32.179Z,6.05
2022-11-20T05:05:35.900Z,6.78
2022-11-20T05:06:37.713Z,8.10
2022-11-20T05:07:39.462Z,5.57
2022-11-20T05:08:41.421Z,7.73
2022-11-20T05:09:43.197Z,5.70
2022-11-20T05:10:44.932Z,7.30
2022-11-20T05:11:50.405Z,7.80
2022-11-20T05:12:53.467Z,11.27
2022-11-20T05:13:55.769Z,11.43
2022-11-20T05:14:57.649Z,13.27
2022-11-20T05:16:04.439Z,7.90
2022-11-20T05:17:06.418Z,6.38
2022-11-20T05:18:08.362Z,7.15
2022-11-20T05:19:10.277Z,7.87
2022-11-20T05:20:12.455Z,7.32
2022-11-20T05:21:14.756Z,7.93
2022-11-20T05:22:16.480Z,8.63
2022-11-20T05:23:18.207Z,9.88
2022-11-20T05:24:20.096Z,7.43
2022-11-20T05:25:21.805Z,8.13
2022-11-20T05:26:23.796Z,10.27
2022-11-20T05:27:25.500Z,6.85
2022-11-20T05:28:29.146Z,6.82
2022-11-20T05:29:30.898Z,8.13
2022-11-20T05:30:32.805Z,6.47
2022-11-20T05:31:34.573Z,8.35
2022-11-20T05:32:36.283Z,8.15
2022-11-20T05:33:40.622Z,10.48
2022-11-20T05:34:42.347Z,7.18
2022-11-20T05:35:44.377Z,7.28
2022-11-20T05:36:46.119Z,7.93
2022-11-20T05:37:47.813Z,6.50
2022-11-20T05:38:51.027Z,6.13
2022-11-20T05:39:53.252Z,8.37
2022-11-20T05:40:55.003Z,13.23
2022-11-20T05:42:15.134Z,8.05
2022-11-20T05:43:16.908Z,6.57
2022-11-20T05:44:18.857Z,7.03
2022-11-20T05:45:20.564Z,9.18
2022-11-20T05:46:28.247Z,8.73
2022-11-20T05:47:35.372Z,7.88
2022-11-20T05:48:37.877Z,7.80
2022-11-20T05:49:39.611Z,7.78
2022-11-20T05:50:41.322Z,7.23
2022-11-20T05:51:43.055Z,8.85
2022-11-20T05:52:44.957Z,10.57
2022-11-20T05:53:48.778Z,10.45
2022-11-20T05:54:50.835Z,7.38
2022-11-20T05:56:03.591Z,7.00
2022-11-20T05:57:05.301Z,6.88
2022-11-20T05:58:07.070Z,6.72
2022-11-20T05:59:08.953Z,7.38
2022-11-20T06:00:11.457Z,6.55
2022-11-20T06:01:21.742Z,7.90
2022-11-20T06:02:23.539Z,7.32
2022-11-20T06:03:25.325Z,7.55
2022-11-20T06:04:27.087Z,5.75
2022-11-20T06:05:28.839Z,8.45
2022-11-20T06:06:30.569Z,11.23
2022-11-20T06:07:32.487Z,6.18
2022-11-20T06:08:34.367Z,6.28
2022-11-20T06:09:36.108Z,6.15
2022-11-20T06:10:37.809Z,6.72
2022-11-20T06:11:39.631Z,9.87
2022-11-20T06:12:41.388Z,6.28
2022-11-20T06:13:43.735Z,6.68
2022-11-20T06:14:45.497Z,5.22
2022-11-20T06:15:51.549Z,6.78
2022-11-20T06:16:53.308Z,6.05
2022-11-20T06:17:56.003Z,8.05
2022-11-20T06:18:57.722Z,5.28
2022-11-20T06:19:59.484Z,6.05
2022-11-20T06:21:10.198Z,6.37
2022-11-20T06:22:12.103Z,5.45
2022-11-20T06:23:14.485Z,6.07
2022-11-20T06:24:16.654Z,3.75
2022-11-20T06:25:18.415Z,5.13
2022-11-20T06:26:26.362Z,6.50
2022-11-20T06:27:28.341Z,6.30
2022-11-20T06:28:30.187Z,4.30
2022-11-20T06:29:34.104Z,6.47
2022-11-20T06:30:36.400Z,5.10
2022-11-20T06:31:38.784Z,5.97
2022-11-20T06:32:40.559Z,6.20
2022-11-20T06:33:43.511Z,4.75
2022-11-20T06:34:45.269Z,10.73
2022-11-20T06:35:46.982Z,5.15
2022-11-20T06:36:48.687Z,4.88
2022-11-20T06:37:50.551Z,4.43
2022-11-20T06:38:52.403Z,4.38
2022-11-20T06:39:54.119Z,5.35
2022-11-20T06:40:56.214Z,7.35
2022-11-20T06:41:59.249Z,4.37
2022-11-20T06:43:01.127Z,6.30
2022-11-20T06:44:05.678Z,6.00
2022-11-20T06:45:08.273Z,8.38
2022-11-20T06:46:11.859Z,5.90
2022-11-20T06:47:13.561Z,6.75
2022-11-20T06:48:15.306Z,6.20
2022-11-20T06:49:17.098Z,7.45
2022-11-20T06:50:18.869Z,9.77
2022-11-20T06:51:20.698Z,9.15
2022-11-20T06:52:22.627Z,7.10
2022-11-20T06:53:24.957Z,6.68
2022-11-20T06:54:26.770Z,6.05
2022-11-20T06:55:28.509Z,9.70
2022-11-20T06:56:30.240Z,8.43
2022-11-20T06:57:32.046Z,13.90
2022-11-20T06:58:35.405Z,10.40
2022-11-20T06:59:37.115Z,10.10
2022-11-20T07:00:38.968Z,8.85
2022-11-20T07:01:40.825Z,9.88
2022-11-20T07:02:42.545Z,7.97
2022-11-20T07:03:45.204Z,9.05
2022-11-20T07:04:47.077Z,10.52
2022-11-20T07:05:48.855Z,5.90
2022-11-20T07:06:50.547Z,9.25
2022-11-20T07:07:52.256Z,6.72
2022-11-20T07:08:53.997Z,9.10
2022-11-20T07:09:55.756Z,6.72
2022-11-20T07:11:01.798Z,8.38
2022-11-20T07:12:03.610Z,7.82
2022-11-20T07:13:05.797Z,7.73
2022-11-20T07:14:07.507Z,7.43
2022-11-20T07:15:09.585Z,8.50
2022-11-20T07:16:11.302Z,8.52
2022-11-20T07:17:13.302Z,8.65
2022-11-20T07:18:15.049Z,8.95
2022-11-20T07:19:16.745Z,9.10
2022-11-20T07:20:18.869Z,10.57
2022-11-20T07:21:20.582Z,11.57
2022-11-20T07:22:22.676Z,13.02
2022-11-20T07:23:24.599Z,7.90
2022-11-20T07:24:26.346Z,9.00
2022-11-20T07:25:29.525Z,9.18
2022-11-20T07:26:31.254Z,9.07
2022-11-20T07:27:33.270Z,11.35
2022-11-20T07:28:35.869Z,9.32
2022-11-20T07:29:37.570Z,9.30
2022-11-20T07:30:39.386Z,9.32
2022-11-20T07:31:41.164Z,9.80
2022-11-20T07:32:42.907Z,10.50
2022-11-20T07:33:44.670Z,7.40
2022-11-20T07:34:46.627Z,10.95
2022-11-20T07:35:48.426Z,12.43
2022-11-20T07:36:50.220Z,8.82
2022-11-20T07:37:52.164Z,10.10
2022-11-20T07:38:53.895Z,11.65
2022-11-20T07:39:55.615Z,8.32
2022-11-20T07:41:04.469Z,9.38
2022-11-20T07:42:07.363Z,11.10
2022-11-20T07:43:10.348Z,11.63
2022-11-20T07:44:12.522Z,11.93
2022-11-20T07:45:14.280Z,16.48
2022-11-20T07:46:16.058Z,10.65
2022-11-20T07:47:17.796Z,10.20
2022-11-20T07:48:19.543Z,10.07
2022-11-20T07:49:21.786Z,10.43
2022-11-20T07:50:23.831Z,14.18
2022-11-20T07:51:26.876Z,13.50
2022-11-20T07:52:29.585Z,13.32
2022-11-20T07:53:31.335Z,15.88
2022-11-20T07:54:33.105Z,14.80
2022-11-20T07:55:34.861Z,17.95
2022-11-20T07:56:36.614Z,14.95
2022-11-20T07:57:38.355Z,18.83
2022-11-20T07:58:40.064Z,17.77
2022-11-20T07:59:41.845Z,16.23
2022-11-20T08:00:43.722Z,17.15
2022-11-20T08:01:45.516Z,13.75
2022-11-20T08:02:47.237Z,14.88
2022-11-20T08:03:49.014Z,15.10
2022-11-20T08:04:50.864Z,15.53
2022-11-20T08:05:52.850Z,14.80
2022-11-20T08:06:54.608Z,13.18
2022-11-20T08:07:56.341Z,12.98
2022-11-20T08:08:58.151Z,13.13
2022-11-20T08:09:59.969Z,12.65
2022-11-20T08:11:20.457Z,15.13
2022-11-20T08:12:40.920Z,8.68
2022-11-20T08:14:01.286Z,11.55
2022-11-20T08:15:04.539Z,13.27
2022-11-20T08:16:08.934Z,16.03
2022-11-20T08:17:11.111Z,14.00
2022-11-20T08:18:30.458Z,11.70
2022-11-20T08:19:33.799Z,9.57
2022-11-20T08:20:36.266Z,13.98
2022-11-20T08:21:38.699Z,13.07
2022-11-20T08:22:40.470Z,12.98
2022-11-20T08:23:42.184Z,11.55
2022-11-20T08:24:43.916Z,13.90
2022-11-20T08:25:50.971Z,11.82
2022-11-20T08:26:52.980Z,11.10
2022-11-20T08:27:59.241Z,10.82
2022-11-20T08:29:02.250Z,12.48
2022-11-20T08:30:05.510Z,11.85
2022-11-20T08:31:07.236Z,11.18
2022-11-20T08:32:08.962Z,9.98
2022-11-20T08:33:10.835Z,11.07
2022-11-20T08:34:17.569Z,12.63
2022-11-20T08:35:21.693Z,13.07
2022-11-20T08:36:24.559Z,12.32
2022-11-20T08:37:26.282Z,14.90
2022-11-20T08:38:28.049Z,14.98
2022-11-20T08:39:29.977Z,15.20
2022-11-20T08:40:32.142Z,11.57
2022-11-20T08:41:34.186Z,16.05
2022-11-20T08:42:36.022Z,14.18
2022-11-20T08:43:37.782Z,13.13
2022-11-20T08:44:39.565Z,18.65
2022-11-20T08:45:41.295Z,12.38
2022-11-20T08:46:44.656Z,12.98
2022-11-20T08:47:47.028Z,9.53
2022-11-20T08:48:49.037Z,10.48
2022-11-20T08:49:50.764Z,14.23
2022-11-20T08:50:52.478Z,15.50
2022-11-20T08:51:56.159Z,16.15
2022-11-20T08:53:03.805Z,18.85
2022-11-20T08:54:06.191Z,15.65
2022-11-20T08:55:08.897Z,16.25
2022-11-20T08:56:11.272Z,15.20
2022-11-20T08:57:12.967Z,14.93
2022-11-20T08:58:14.691Z,19.23
2022-11-20T08:59:31.308Z,16.30
2022-11-20T09:00:38.326Z,17.27
2022-11-20T09:01:40.503Z,16.38
2022-11-20T09:02:42.266Z,16.75
2022-11-20T09:03:44.009Z,15.38
2022-11-20T09:04:45.912Z,15.05
2022-11-20T09:05:47.731Z,17.42
2022-11-20T09:06:51.954Z,18.17
2022-11-20T09:07:57.483Z,19.55
2022-11-20T09:09:03.478Z,19.47
2022-11-20T09:10:23.516Z,17.15
2022-11-20T09:11:26.084Z,19.38
2022-11-20T09:12:27.804Z,18.73
2022-11-20T09:13:30.290Z,20.55
2022-11-20T09:14:32.084Z,21.85
2022-11-20T09:15:34.752Z,22.77
2022-11-20T09:16:36.595Z,21.92
2022-11-20T09:17:38.368Z,18.52
2022-11-20T09:18:40.124Z,21.15
2022-11-20T09:19:42.494Z,18.37
2022-11-20T09:20:45.209Z,20.20
2022-11-20T09:21:47.040Z,18.48
2022-11-20T09:22:49.267Z,16.00
2022-11-20T09:23:51.006Z,20.27
2022-11-20T09:24:52.710Z,17.55
2022-11-20T09:25:56.700Z,20.80
2022-11-20T09:26:58.432Z,21.30
2022-11-20T09:28:00.700Z,19.40
2022-11-20T09:29:02.454Z,17.13
2022-11-20T09:30:04.891Z,23.03
2022-11-20T09:31:11.066Z,18.23
2022-11-20T09:32:12.879Z,19.10
2022-11-20T09:33:14.619Z,20.67
2022-11-20T09:34:16.568Z,19.20
2022-11-20T09:35:18.900Z,22.90
2022-11-20T09:36:20.723Z,20.15
2022-11-20T09:37:22.457Z,22.05
2022-11-20T09:38:24.221Z,20.10
2022-11-20T09:39:25.978Z,17.83
2022-11-20T09:40:30.495Z,19.53
2022-11-20T09:41:56.488Z,18.13
2022-11-20T09:43:16.139Z,18.50
2022-11-20T09:44:28.533Z,19.55
2022-11-20T09:45:39.698Z,16.45
2022-11-20T09:46:54.455Z,20.70
2022-11-20T09:48:08.229Z,21.85
2022-11-20T09:49:33.930Z,19.27
2022-11-20T09:51:07.422Z,20.33
2022-11-20T09:52:12.098Z,24.15
2022-11-20T09:53:27.585Z,29.37
2022-11-20T09:54:36.709Z,26.58
2022-11-20T09:55:39.575Z,19.15
2022-11-20T09:56:45.896Z,20.77
2022-11-20T09:57:49.200Z,20.33
2022-11-20T09:58:54.859Z,24.33
2022-11-20T10:00:00.382Z,22.63
2022-11-20T10:01:17.456Z,28.20
2022-11-20T10:02:25.333Z,18.67
2022-11-20T10:03:42.876Z,19.83
2022-11-20T10:04:59.912Z,19.77
2022-11-20T10:06:03.728Z,19.15
2022-11-20T10:07:31.834Z,24.48
2022-11-20T10:08:46.082Z,22.45
2022-11-20T10:09:54.958Z,20.67
2022-11-20T10:11:02.571Z,22.85
2022-11-20T10:12:34.104Z,20.02
2022-11-20T10:13:42.008Z,23.40
2022-11-20T10:15:23.605Z,21.92
2022-11-20T10:16:58.209Z,22.60
2022-11-20T10:18:05.175Z,18.77
2022-11-20T10:19:48.445Z,22.90
2022-11-20T10:21:10.701Z,20.10
2022-11-20T10:22:33.545Z,19.17
2022-11-20T10:24:00.327Z,21.15
2022-11-20T10:25:22.064Z,20.60
2022-11-20T10:26:37.908Z,23.92
2022-11-20T10:27:51.887Z,22.73
2022-11-20T10:29:40.590Z,20.13
2022-11-20T10:30:45.014Z,19.95
2022-11-20T10:31:53.380Z,18.97
2022-11-20T10:33:09.883Z,22.05
2022-11-20T10:34:39.650Z,21.00
2022-11-20T10:35:51.150Z,17.88
2022-11-20T10:37:04.553Z,28.20
2022-11-20T10:38:18.166Z,20.67
2022-11-20T10:39:30.024Z,20.83
2022-11-20T10:40:46.805Z,21.38
2022-11-20T10:41:52.858Z,21.25
2022-11-20T10:42:58.262Z,20.52
2022-11-20T10:44:06.353Z,20.90
2022-11-20T10:45:25.909Z,21.17
2022-11-20T10:46:38.544Z,22.88
2022-11-20T10:47:40.292Z,21.08
2022-11-20T10:48:45.295Z,20.25
2022-11-20T10:49:51.708Z,21.35
2022-11-20T10:51:15.335Z,21.08
2022-11-20T10:52:49.121Z,21.65
2022-11-20T10:54:02.717Z,22.42
2022-11-20T10:55:18.315Z,19.98
2022-11-20T10:56:36.654Z,25.23
2022-11-20T10:57:57.113Z,20.77
2022-11-20T10:59:34.573Z,23.02
2022-11-20T11:00:36.562Z,20.98
2022-11-20T11:01:43.434Z,19.40
2022-11-20T11:02:49.859Z,19.13
2022-11-20T11:03:56.142Z,19.23
2022-11-20T11:04:58.387Z,18.58
2022-11-20T11:06:32.023Z,23.10
2022-11-20T11:07:40.301Z,19.05
2022-11-20T11:08:42.400Z,20.10
2022-11-20T11:09:49.953Z,22.48
2022-11-20T11:10:58.341Z,10.88
2022-11-20T11:12:05.755Z,13.00
2022-11-20T11:13:19.841Z,10.38
2022-11-20T11:14:21.573Z,13.82
2022-11-20T11:15:38.010Z,12.48
2022-11-20T11:16:58.646Z,14.07
2022-11-20T11:18:00.426Z,19.73
2022-11-20T11:19:15.766Z,18.58
2022-11-20T11:20:21.092Z,19.33
2022-11-20T11:21:25.540Z,15.05
2022-11-20T11:22:31.109Z,7.63
2022-11-20T11:23:43.776Z,11.35
2022-11-20T11:24:54.356Z,12.40
2022-11-20T11:26:00.606Z,7.53
2022-11-20T11:27:05.594Z,13.18
2022-11-20T11:28:19.771Z,10.32
2022-11-20T11:29:21.737Z,10.73
2022-11-20T11:30:25.210Z,12.73
2022-11-20T11:31:28.279Z,14.57
2022-11-20T11:32:30.038Z,6.50
2022-11-20T11:33:36.851Z,10.75
2022-11-20T11:34:38.699Z,8.57
2022-11-20T11:35:51.113Z,8.65
2022-11-20T11:36:59.520Z,6.95
2022-11-20T11:38:12.772Z,7.60
2022-11-20T11:39:18.459Z,8.63
2022-11-20T11:40:25.419Z,9.57
2022-11-20T11:41:32.921Z,7.05
2022-11-20T11:42:34.838Z,11.40
2022-11-20T11:43:57.077Z,6.43
2022-11-20T11:45:07.126Z,8.68
2022-11-20T11:46:21.123Z,12.32
2022-11-20T11:47:38.312Z,9.32
2022-11-20T11:48:40.306Z,8.45
2022-11-20T11:49:42.315Z,11.55
2022-11-20T11:50:51.021Z,10.40
2022-11-20T11:51:52.704Z,9.23
2022-11-20T11:53:03.130Z,7.82
2022-11-20T11:54:14.871Z,9.93
2022-11-20T11:55:22.540Z,8.85
2022-11-20T11:56:24.897Z,6.15
2022-11-20T11:57:43.773Z,11.70
2022-11-20T11:58:47.700Z,7.90
2022-11-20T12:00:22.135Z,9.93
2022-11-20T12:01:39.908Z,9.43
2022-11-20T12:02:50.282Z,10.73
2022-11-20T12:04:02.760Z,11.25
2022-11-20T12:05:20.671Z,9.02
2022-11-20T12:06:22.734Z,11.47
2022-11-20T12:07:47.621Z,12.13
2022-11-20T12:09:05.165Z,10.75
2022-11-20T12:10:17.895Z,13.38
2022-11-20T12:12:00.325Z,10.73
2022-11-20T12:13:28.440Z,8.35
2022-11-20T12:14:39.039Z,11.70
2022-11-20T12:15:45.894Z,9.55
2022-11-20T12:16:47.920Z,8.50
2022-11-20T12:17:49.927Z,8.18
2022-11-20T12:18:53.595Z,8.97
2022-11-20T12:19:55.343Z,8.52
2022-11-20T12:21:19.121Z,7.43
2022-11-20T12:22:23.968Z,5.97
2022-11-20T12:24:01.164Z,5.68
2022-11-20T12:25:11.078Z,6.53
2022-11-20T12:26:24.321Z,9.50
2022-11-20T12:28:03.704Z,7.68
2022-11-20T12:29:19.974Z,6.22
2022-11-20T12:30:23.201Z,6.75
2022-11-20T12:31:49.877Z,8.33
2022-11-20T12:33:03.260Z,8.80
2022-11-20T12:34:29.736Z,6.40
2022-11-20T12:36:14.776Z,8.43
2022-11-20T12:37:22.581Z,6.22
2022-11-20T12:38:58.099Z,5.63
2022-11-20T12:40:22.809Z,7.65
2022-11-20T12:42:07.961Z,6.93
2022-11-20T12:43:44.761Z,7.25
2022-11-20T12:45:12.422Z,6.10
2022-11-20T12:46:38.901Z,12.33
2022-11-20T12:48:01.754Z,9.27
2022-11-20T12:49:32.774Z,6.50
2022-11-20T12:51:13.971Z,7.10
2022-11-20T12:52:45.040Z,7.88
2022-11-20T12:54:11.683Z,7.30
2022-11-20T12:55:25.481Z,5.82
2022-11-20T12:56:30.311Z,9.77
2022-11-20T12:57:51.952Z,9.07
2022-11-20T12:59:27.801Z,9.82
2022-11-20T13:00:32.656Z,8.70
2022-11-20T13:01:51.341Z,9.73
2022-11-20T13:03:09.094Z,7.90
2022-11-20T13:04:19.905Z,11.90
2022-11-20T13:05:43.602Z,7.60
2022-11-20T13:06:45.953Z,10.57
2022-11-20T13:07:51.550Z,10.02
2022-11-20T13:08:57.421Z,11.40
2022-11-20T13:10:00.370Z,7.65
2022-11-20T13:11:20.102Z,9.57
2022-11-20T13:12:31.752Z,7.50
2022-11-20T13:14:10.997Z,8.43
2022-11-20T13:15:36.429Z,8.30
2022-11-20T13:16:45.683Z,8.18
2022-11-20T13:17:59.286Z,6.80
2022-11-20T13:19:05.889Z,8.60
2022-11-20T13:20:15.363Z,7.75
2022-11-20T13:21:19.792Z,8.45
2022-11-20T13:22:43.471Z,7.28
2022-11-20T13:23:45.299Z,9.00
2022-11-20T13:24:52.872Z,6.97
2022-11-20T13:26:16.798Z,9.63
2022-11-20T13:27:21.718Z,10.65
2022-11-20T13:28:23.429Z,9.43
2022-11-20T13:29:25.168Z,8.02
2022-11-20T13:30:28.756Z,10.25
2022-11-20T13:31:40.737Z,8.50
2022-11-20T13:33:00.799Z,9.68
2022-11-20T13:34:06.457Z,8.82
2022-11-20T13:35:10.197Z,7.45
2022-11-20T13:36:27.063Z,8.87
2022-11-20T13:37:39.396Z,9.18
2022-11-20T13:38:48.448Z,8.55
2022-11-20T13:39:50.195Z,7.45
2022-11-20T13:40:53.252Z,7.63
2022-11-20T13:42:22.883Z,9.02
2022-11-20T13:43:36.374Z,6.35
2022-11-20T13:44:48.196Z,4.85
2022-11-20T13:45:58.047Z,6.65
2022-11-20T13:46:59.893Z,8.45
2022-11-20T13:48:24.748Z,7.77
2022-11-20T13:49:45.241Z,7.70
2022-11-20T13:51:38.217Z,6.07
2022-11-20T13:52:58.815Z,7.82
2022-11-20T13:54:23.244Z,9.10
2022-11-20T13:55:43.065Z,8.90
2022-11-20T13:56:54.723Z,8.95
2022-11-20T13:58:08.511Z,9.52
2022-11-20T13:59:31.261Z,8.43
2022-11-20T14:00:33.115Z,10.85
2022-11-20T14:01:35.821Z,8.80
2022-11-20T14:02:38.073Z,8.75
2022-11-20T14:05:02.985Z,7.65
2022-11-20T14:06:19.621Z,7.00
2022-11-20T14:07:25.150Z,8.30
2022-11-20T14:08:32.342Z,8.98
2022-11-20T14:09:35.359Z,9.50
2022-11-20T14:10:40.169Z,7.78
2022-11-20T14:11:48.894Z,9.35
2022-11-20T14:12:51.837Z,7.17
2022-11-20T14:14:12.197Z,8.35
2022-11-20T14:15:32.207Z,7.70
2022-11-20T14:16:36.772Z,9.32
2022-11-20T14:17:39.183Z,7.57
2022-11-20T14:18:40.914Z,9.00
2022-11-20T14:19:46.278Z,8.30
2022-11-20T14:20:48.414Z,7.78
2022-11-20T14:21:52.620Z,9.18
2022-11-20T14:22:55.564Z,9.65
2022-11-20T14:24:07.424Z,7.47
2022-11-20T14:25:15.290Z,10.07
2022-11-20T14:26:21.283Z,10.75
2022-11-20T14:27:23.124Z,8.88
2022-11-20T14:28:31.294Z,9.40
2022-11-20T14:29:38.382Z,7.35